Open Full Screen Window  High Contrast Mode
Wind Gusting 00 knots
06
September 25, 2018 10:51 AM EDT
Weather Information
Wind Direction
  190 °
Wind Speed
  06 kt (7 mph)
Wind Gust
  00 kt (0 mph)
Altimeter
30.10 in
Visibility
10 SM
Temperature
19° C
66° F
Dewpoint
18° C
64° F
Humidity
94%
1hr Rain Fall
00.04 in.
24hr Rain Fall
01.01 in.
Sky Condition
Overcast @ 600 ft
IFR

METAR KPOV 251451Z AUTO 19006KT 10SM OVC006 19/18 A3010 RMK AO2 P0004 T01920177 PWINO

FAA Disclaimer: The data displayed is for advisory purposes only and is not to be used for flight planning or operations.